Time;durP1;ratioP1;P1;durP2;ratioP2;P2;SDS_P1;SDS_P2;PMS_P1;PMS_P2;Temp;Humidity;BMP_temperature;BMP_pressure;BME280_temperature;BME280_humidity;BME280_pressure;Samples;Min_cycle;Max_cycle;Signal;HPM_P1;HPM_P2
2022/12/21 00:00:14;;;;;;;23.80;21.40;;;;;;;8.56;100.00;101060.53;5113598;28;20833;-37
2022/12/21 00:02:40;;;;;;;24.33;21.73;;;;;;;8.60;100.00;101055.53;5115308;28;20363;-37
2022/12/21 00:05:08;;;;;;;23.90;21.40;;;;;;;8.59;100.00;101048.47;5114427;28;20443;-37
2022/12/21 00:07:34;;;;;;;24.45;21.35;;;;;;;8.43;100.00;101030.91;5114834;28;20340;-37
2022/12/21 00:10:00;;;;;;;25.27;22.58;;;;;;;8.57;100.00;101043.31;5114736;28;20035;-37
2022/12/21 00:12:25;;;;;;;26.90;22.60;;;;;;;8.56;100.00;101046.22;5114581;28;20087;-37
2022/12/21 00:14:50;;;;;;;26.03;22.80;;;;;;;8.48;100.00;101036.50;5114565;28;20030;-37
2022/12/21 00:17:16;;;;;;;24.03;21.43;;;;;;;8.57;100.00;101047.88;5114449;28;20035;-36
2022/12/21 00:19:43;;;;;;;26.08;22.88;;;;;;;8.56;100.00;101047.03;5114828;28;20253;-37
2022/12/21 00:22:08;;;;;;;27.48;23.83;;;;;;;8.56;100.00;101047.03;5114448;28;20080;-37
2022/12/21 00:24:34;;;;;;;27.70;24.73;;;;;;;8.57;100.00;101047.88;5114151;28;20438;-37
2022/12/21 00:26:59;;;;;;;30.80;24.40;;;;;;;8.58;100.00;101046.81;5114654;28;20039;-37
2022/12/21 00:29:24;;;;;;;29.20;25.07;;;;;;;8.56;100.00;101046.22;5114658;28;20019;-37
2022/12/21 00:31:50;;;;;;;27.17;24.03;;;;;;;8.58;100.00;101049.50;5114183;28;20081;-37
2022/12/21 00:34:19;;;;;;;25.42;22.65;;;;;;;8.52;100.00;101045.81;5114325;28;20032;-37
2022/12/21 00:36:46;;;;;;;26.05;22.98;;;;;;;8.51;100.00;101049.56;5113986;28;20079;-36
2022/12/21 00:39:12;;;;;;;28.80;24.23;;;;;;;8.52;100.00;101049.31;5114185;28;20444;-36
2022/12/21 00:41:37;;;;;;;27.48;23.17;;;;;;;8.51;100.00;101050.38;5114007;28;20054;-36
2022/12/21 00:44:03;;;;;;;29.60;23.20;;;;;;;8.50;100.00;101040.63;5114365;28;20467;-36
2022/12/21 00:46:30;;;;;;;31.27;24.90;;;;;;;8.52;100.00;101048.50;5114360;28;20310;-36
2022/12/21 00:48:57;;;;;;;29.23;26.05;;;;;;;8.49;100.00;101059.69;5113965;28;20062;-36
2022/12/21 00:51:24;;;;;;;30.17;25.17;;;;;;;8.47;100.00;101049.13;5114153;28;20030;-36
2022/12/21 00:53:51;;;;;;;29.52;25.70;;;;;;;8.46;100.00;101058.28;5113948;28;20463;-36
2022/12/21 00:56:17;;;;;;;31.17;25.63;;;;;;;8.46;100.00;101047.50;5113653;28;20145;-36
2022/12/21 00:58:43;;;;;;;29.02;23.85;;;;;;;8.45;100.00;101053.91;5114307;28;20027;-36
2022/12/21 01:01:12;;;;;;;29.13;24.13;;;;;;;8.42;100.00;101054.34;5113766;28;20525;-37
2022/12/21 01:03:38;;;;;;;27.48;22.73;;;;;;;8.30;100.00;101044.41;5113709;28;20043;-36
2022/12/21 01:06:03;;;;;;;31.25;25.20;;;;;;;8.44;100.00;101078.38;5113655;28;20034;-36
2022/12/21 01:08:29;;;;;;;32.53;25.63;;;;;;;8.43;100.00;101074.84;5113015;28;20467;-36
2022/12/21 01:11:02;;;;;;;25.85;22.30;;;;;;;8.39;100.00;101067.41;5113000;28;20047;-36
2022/12/21 01:13:29;;;;;;;30.35;25.70;;;;;;;8.41;100.00;101076.94;5113793;28;20031;-36
2022/12/21 01:15:55;;;;;;;31.80;25.52;;;;;;;8.41;100.00;101079.63;5113424;28;20023;-36
2022/12/21 01:18:21;;;;;;;34.47;26.85;;;;;;;8.41;100.00;101074.25;5113531;28;20031;-37
2022/12/21 01:20:48;;;;;;;30.55;25.52;;;;;;;8.41;100.00;101074.25;5113535;28;20371;-36
2022/12/21 01:23:15;;;;;;;26.17;21.98;;;;;;;8.40;100.00;101066.38;5114098;28;20039;-37
2022/12/21 01:25:42;;;;;;;25.00;21.55;;;;;;;8.39;100.00;101072.78;5113655;28;20379;-36
2022/12/21 01:28:08;;;;;;;28.77;24.55;;;;;;;8.33;100.00;101063.66;5113092;28;20544;-36
2022/12/21 01:30:33;;;;;;;27.95;23.70;;;;;;;8.32;100.00;101067.38;5113578;28;20027;-36
2022/12/21 01:32:58;;;;;;;32.00;25.70;;;;;;;8.36;100.00;101074.06;5113273;28;20051;-37
2022/12/21 01:35:24;;;;;;;34.30;24.90;;;;;;;8.34;100.00;101070.69;5113209;28;20023;-36
2022/12/21 01:37:49;;;;;;;30.03;25.37;;;;;;;8.36;100.00;101062.41;5113154;28;20056;-37
2022/12/21 01:40:14;;;;;;;27.70;24.80;;;;;;;8.37;100.00;101083.78;5113225;28;20024;-36
2022/12/21 01:42:40;;;;;;;29.67;24.43;;;;;;;8.27;100.00;101076.09;5113409;28;20051;-36
2022/12/21 01:45:24;;;;;;;29.50;24.60;;;;;;;8.37;100.00;101094.56;5113639;28;20031;-37
2022/12/21 01:47:57;;;;;;;28.58;25.45;;;;;;;8.33;100.00;101101.38;5113696;28;20024;-36
2022/12/21 01:50:45;;;;;;;32.88;26.67;;;;;;;8.35;100.00;101107.41;5113367;28;20397;-36
2022/12/21 01:53:28;;;;;;;30.00;25.50;;;;;;;8.35;100.00;101093.09;5113314;28;20034;-37
2022/12/21 01:55:57;;;;;;;36.47;26.60;;;;;;;8.31;100.00;101100.78;5113227;28;20456;-36
2022/12/21 01:58:26;;;;;;;32.92;26.45;;;;;;;8.32;100.00;101107.81;5113179;28;20040;-36
2022/12/21 02:00:52;;;;;;;32.67;26.08;;;;;;;8.30;100.00;101098.28;5113031;28;20111;-37
2022/12/21 02:03:19;;;;;;;;;;;;;;;8.36;100.00;101092.91;5113733;28;20114;-36
2022/12/21 02:05:53;;;;;;;;;;;;;;;8.36;100.00;101081.28;5113390;28;19908;-36
2022/12/21 02:08:19;;;;;;;29.77;23.67;;;;;;;8.27;100.00;101077.97;5113519;28;19964;-37
2022/12/21 02:10:44;;;;;;;26.58;23.13;;;;;;;8.26;100.00;101079.00;5112949;28;20464;-36
2022/12/21 02:13:15;;;;;;;31.27;25.85;;;;;;;8.24;100.00;101078.38;5113211;28;20460;-36
2022/12/21 02:16:07;;;;;;;33.20;26.63;;;;;;;8.23;100.00;101074.03;5112868;28;20114;-36
2022/12/21 02:19:03;;;;;;;31.58;25.70;;;;;;;8.23;100.00;101084.81;5113403;28;20030;-36
2022/12/21 02:21:49;;;;;;;35.72;26.05;;;;;;;8.03;100.00;101055.22;5112827;28;20028;-36
2022/12/21 02:24:35;;;;;;;31.73;26.00;;;;;;;8.18;100.00;101090.81;5116549;28;20024;-36
2022/12/21 02:27:14;;;;;;;22.48;19.38;;;;;;;8.17;100.00;101085.66;5116684;28;20044;-36
2022/12/21 02:30:00;;;;;;;31.40;25.10;;;;;;;8.19;100.00;101078.19;5116880;28;20046;-36
2022/12/21 02:32:57;;;;;;;34.30;26.33;;;;;;;8.19;100.00;101070.09;5116823;28;20028;-36
2022/12/21 02:35:33;;;;;;;32.25;25.23;;;;;;;8.19;100.00;101067.41;5116930;28;20023;-36
2022/12/21 02:38:11;;;;;;;35.33;26.35;;;;;;;8.18;100.00;101077.34;5117243;28;20048;-36
2022/12/21 02:40:54;;;;;;;29.80;23.77;;;;;;;8.16;100.00;101067.84;5116678;28;20384;-36
2022/12/21 02:46:32;;;;;;;31.38;25.15;;;;;;;8.15;100.00;101061.63;5116745;28;20047;-36
2022/12/21 02:49:05;;;;;;;29.20;23.83;;;;;;;8.16;100.00;101073.22;5116223;28;20031;-36
2022/12/21 02:51:47;;;;;;;24.10;21.33;;;;;;;8.15;100.00;101068.84;5115915;28;20077;-36
2022/12/21 02:54:13;;;;;;;29.30;22.98;;;;;;;8.14;100.00;101077.97;5116453;28;20100;-36
2022/12/21 02:56:38;;;;;;;24.77;20.58;;;;;;;8.15;100.00;101071.56;5115743;28;20475;-37
2022/12/21 02:59:06;;;;;;;29.17;23.67;;;;;;;8.13;100.00;101077.16;5116037;28;20042;-36
2022/12/21 03:02:05;;;;;;;30.42;25.83;;;;;;;8.14;100.00;101069.91;5116028;28;20066;-36
2022/12/21 03:04:56;;;;;;;33.67;26.45;;;;;;;8.14;100.00;101059.94;5116510;28;20028;-36
2022/12/21 03:07:36;;;;;;;31.90;26.17;;;;;;;8.08;100.00;101055.41;5116406;28;20110;-36
2022/12/21 03:10:10;;;;;;;28.90;24.80;;;;;;;8.12;100.00;101055.81;5115902;27;20494;-36
2022/12/21 03:12:53;;;;;;;33.55;26.80;;;;;;;8.09;100.00;101045.47;5115837;28;20376;-36
2022/12/21 03:15:47;;;;;;;33.70;26.85;;;;;;;8.10;100.00;101057.88;5115896;28;20089;-36
2022/12/21 03:18:44;;;;;;;34.88;28.20;;;;;;;8.11;100.00;101064.94;5116404;28;20376;-36
2022/12/21 03:21:30;;;;;;;34.75;28.48;;;;;;;8.04;100.00;101039.88;5115704;28;20023;-36
2022/12/21 03:24:13;;;;;;;35.13;28.07;;;;;;;7.99;100.00;101049.41;5115909;28;20032;-36
2022/12/21 03:26:46;;;;;;;36.60;28.65;;;;;;;8.11;100.00;101063.09;5115883;27;20032;-36
2022/12/21 03:29:16;;;;;;;36.70;28.00;;;;;;;8.12;100.00;101061.22;5115486;28;20164;-36
2022/12/21 03:31:46;;;;;;;33.63;27.60;;;;;;;8.09;100.00;101042.78;5115753;28;20031;-36
2022/12/21 03:34:18;;;;;;;37.00;28.60;;;;;;;8.10;100.00;101052.50;5115031;28;20027;-36
2022/12/21 03:37:06;;;;;;;36.20;29.05;;;;;;;8.00;100.00;101028.69;5115128;28;20043;-36
2022/12/21 03:39:36;;;;;;;33.20;27.42;;;;;;;8.07;100.00;101034.09;5115855;28;20020;-36
2022/12/21 03:42:10;;;;;;;37.85;29.90;;;;;;;8.07;100.00;101043.00;5115529;28;20024;-36
2022/12/21 03:44:43;;;;;;;33.65;27.52;;;;;;;8.08;100.00;101043.81;5114934;28;20027;-37
2022/12/21 03:47:20;;;;;;;37.90;30.83;;;;;;;8.05;100.00;101053.13;5115176;28;20042;-36
2022/12/21 03:49:51;;;;;;;40.05;30.13;;;;;;;8.06;100.00;101059.38;5115371;28;20046;-36
2022/12/21 03:52:22;;;;;;;39.95;30.17;;;;;;;8.05;100.00;101055.81;5115803;28;20038;-36
2022/12/21 03:54:56;;;;;;;40.83;31.23;;;;;;;8.03;100.00;101052.50;5115042;28;20061;-36
2022/12/21 03:57:23;;;;;;;40.03;30.77;;;;;;;8.04;100.00;101047.97;5113749;28;20023;-36
2022/12/21 03:59:53;;;;;;;42.85;31.10;;;;;;;8.04;100.00;101037.19;5114940;28;20406;-37
2022/12/21 04:02:41;;;;;;;37.17;29.73;;;;;;;8.06;100.00;101037.81;5115176;28;20112;-37
2022/12/21 04:05:17;;;;;;;37.50;29.27;;;;;;;8.04;100.00;101032.63;5115181;28;20375;-36
2022/12/21 04:07:45;;;;;;;38.95;29.63;;;;;;;8.00;100.00;101037.63;5115106;28;20023;-37
2022/12/21 04:10:15;;;;;;;39.05;29.55;;;;;;;8.02;100.00;101050.03;5114746;28;20032;-37
2022/12/21 04:12:40;;;;;;;40.05;30.80;;;;;;;7.99;100.00;101043.19;5114640;28;20038;-36
2022/12/21 04:15:12;;;;;;;42.30;31.13;;;;;;;7.91;100.00;101030.78;5115232;28;20472;-37
2022/12/21 04:17:39;;;;;;;41.08;30.17;;;;;;;7.94;100.00;101033.03;5114492;28;20033;-37
2022/12/21 04:20:08;;;;;;;34.20;28.20;;;;;;;7.98;100.00;101041.53;5114967;27;20027;-37
2022/12/21 04:28:10;;;;;;;37.58;28.10;;;;;;;7.93;100.00;101042.16;5114269;28;20042;-36
2022/12/21 04:30:43;;;;;;;34.65;27.17;;;;;;;7.90;100.00;101047.97;5114254;28;20046;-36
2022/12/21 04:33:12;;;;;;;36.65;28.63;;;;;;;7.88;100.00;101039.28;5114248;28;20087;-36
2022/12/21 04:37:30;;;;;;;34.38;27.15;;;;;;;7.89;100.00;101040.94;5114168;27;20030;-36
2022/12/21 04:38:25;;;;;;;35.00;27.30;;;;;;;7.92;100.00;101045.09;5114687;28;20047;-37
2022/12/21 04:40:52;;;;;;;38.70;28.90;;;;;;;7.89;100.00;101040.94;5112940;28;20041;-36
2022/12/21 04:43:17;;;;;;;37.40;28.92;;;;;;;7.89;100.00;101035.53;5114330;28;20030;-36
2022/12/21 04:45:42;;;;;;;36.90;28.43;;;;;;;7.89;100.00;101038.22;5113482;28;20488;-36
2022/12/21 04:48:08;;;;;;;36.13;27.93;;;;;;;7.89;100.00;101043.63;5113656;28;20062;-36
2022/12/21 04:50:33;;;;;;;30.83;26.87;;;;;;;7.88;100.00;101033.88;5113884;28;20027;-36
2022/12/21 04:52:58;;;;;;;32.50;26.27;;;;;;;7.88;100.00;101028.50;5113707;28;20548;-36
2022/12/21 04:55:24;;;;;;;39.10;26.70;;;;;;;7.82;100.00;101028.53;5113735;28;20028;-36
2022/12/21 04:57:49;;;;;;;34.75;26.88;;;;;;;7.89;100.00;101037.41;5113729;28;20027;-36
2022/12/21 05:00:15;;;;;;;27.60;21.93;;;;;;;7.89;100.00;101043.63;5113517;28;20024;-36
2022/12/21 05:02:41;;;;;;;30.58;24.52;;;;;;;7.89;100.00;101035.53;5114508;28;20027;-36
2022/12/21 05:05:06;;;;;;;29.30;23.30;;;;;;;7.89;100.00;101040.09;5113850;28;20115;-36
2022/12/21 05:07:32;;;;;;;29.88;23.60;;;;;;;7.87;100.00;101032.25;5114065;28;20043;-36
2022/12/21 05:09:57;;;;;;;23.07;19.80;;;;;;;7.87;100.00;101028.72;5113905;28;20028;-36
2022/12/21 05:12:22;;;;;;;29.87;22.87;;;;;;;7.85;100.00;101022.69;5113630;28;20028;-36
2022/12/21 05:14:48;;;;;;;26.17;21.37;;;;;;;7.84;100.00;101021.88;5114106;28;20020;-36
2022/12/21 05:17:13;;;;;;;21.60;18.53;;;;;;;7.78;100.00;101020.03;5113158;28;20032;-36
2022/12/21 05:19:38;;;;;;;25.92;20.48;;;;;;;7.77;100.00;101023.75;5114161;28;20066;-36
2022/12/21 05:22:04;;;;;;;25.60;20.87;;;;;;;7.84;100.00;101031.81;5113213;28;20115;-36
2022/12/21 05:24:29;;;;;;;27.87;21.50;;;;;;;7.81;100.00;101038.47;5114017;28;20043;-36
2022/12/21 05:26:55;;;;;;;25.33;19.92;;;;;;;7.79;100.00;101035.13;5113667;28;20035;-36
2022/12/21 05:29:20;;;;;;;24.93;19.47;;;;;;;7.80;100.00;101033.28;5113898;28;20047;-36
2022/12/21 05:31:45;;;;;;;24.07;19.17;;;;;;;7.78;100.00;101028.09;5113570;28;20024;-36
2022/12/21 05:34:11;;;;;;;21.90;18.47;;;;;;;7.75;100.00;101023.94;5113602;28;20273;-36
2022/12/21 05:36:36;;;;;;;23.10;17.60;;;;;;;7.67;100.00;101007.19;5112853;28;20077;-36
2022/12/21 05:39:02;;;;;;;16.40;13.57;;;;;;;7.69;100.00;101015.88;5113041;28;20027;-36
2022/12/21 05:41:27;;;;;;;22.43;15.83;;;;;;;7.71;100.00;101021.88;5113595;28;20063;-36
2022/12/21 05:43:52;;;;;;;19.47;15.83;;;;;;;7.69;100.00;101024.78;5113112;28;20028;-36
2022/12/21 05:46:18;;;;;;;20.40;15.83;;;;;;;7.62;100.00;101015.06;5113212;28;20277;-36
2022/12/21 05:48:43;;;;;;;19.20;15.40;;;;;;;7.65;100.00;101039.69;5113144;28;20023;-36
2022/12/21 05:51:10;;;;;;;17.67;14.67;;;;;;;7.65;100.00;101025.41;5113163;28;20028;-36
2022/12/21 05:53:40;;;;;;;19.02;14.88;;;;;;;7.62;100.00;101023.16;5113331;28;20027;-36
2022/12/21 05:56:05;;;;;;;18.27;14.23;;;;;;;7.55;100.00;101009.66;5112712;28;20532;-36
2022/12/21 05:58:31;;;;;;;18.77;14.70;;;;;;;7.56;100.00;101014.00;5116044;28;20132;-36
2022/12/21 06:01:00;;;;;;;15.82;13.60;;;;;;;7.50;100.00;101014.84;5117357;28;20380;-36
2022/12/21 06:03:26;;;;;;;16.55;14.38;;;;;;;7.49;100.00;101008.63;5116817;28;20020;-36
2022/12/21 06:05:51;;;;;;;17.33;14.10;;;;;;;7.54;100.00;101007.19;5117021;28;20080;-37
2022/12/21 06:08:16;;;;;;;17.87;14.07;;;;;;;7.47;100.00;101010.72;5117491;28;20085;-37
2022/12/21 06:10:42;;;;;;;18.20;13.93;;;;;;;7.46;100.00;101008.22;5117075;27;20324;-37
2022/12/21 06:13:07;;;;;;;18.50;13.93;;;;;;;7.46;100.00;101009.03;5117638;28;20372;-37
2022/12/21 06:15:33;;;;;;;20.40;14.17;;;;;;;7.48;100.00;101006.16;5116502;28;20063;-37
2022/12/21 06:17:58;;;;;;;21.00;13.40;;;;;;;7.45;100.00;101007.38;5116634;28;20024;-37
2022/12/21 06:20:24;;;;;;;14.97;11.50;;;;;;;7.47;100.00;101007.22;5116867;28;20023;-37
2022/12/21 06:22:49;;;;;;;17.53;13.87;;;;;;;7.42;100.00;101013.22;5117088;28;20024;-37
2022/12/21 06:25:14;;;;;;;18.90;13.57;;;;;;;7.46;100.00;101010.91;5117426;28;20032;-37
2022/12/21 06:27:40;;;;;;;17.07;12.87;;;;;;;7.44;100.00;101021.06;5117178;28;20028;-37
2022/12/21 06:30:06;;;;;;;17.97;14.00;;;;;;;7.40;100.00;101015.25;5116831;28;20031;-37
2022/12/21 06:32:31;;;;;;;19.85;13.38;;;;;;;7.37;100.00;101010.31;5116775;28;20435;-37
2022/12/21 06:34:56;;;;;;;15.73;12.60;;;;;;;7.33;100.00;101009.06;5116543;28;20507;-37
2022/12/21 06:37:22;;;;;;;17.97;13.17;;;;;;;7.40;100.00;101025.19;5116430;28;20048;-37
2022/12/21 06:39:47;;;;;;;17.00;12.60;;;;;;;7.39;100.00;101040.50;5116414;28;20024;-37
2022/12/21 06:42:12;;;;;;;18.87;14.37;;;;;;;7.36;100.00;101027.47;5116279;28;20023;-37
2022/12/21 06:44:38;;;;;;;18.00;13.43;;;;;;;7.36;100.00;101027.47;5116411;28;20107;-37
2022/12/21 06:47:03;;;;;;;18.47;14.07;;;;;;;7.29;100.00;101013.19;5115983;28;20035;-37
2022/12/21 06:49:28;;;;;;;19.97;13.80;;;;;;;7.37;100.00;101021.06;5116317;28;20074;-37
2022/12/21 06:51:53;;;;;;;15.23;10.97;;;;;;;7.37;100.00;101020.22;5116155;28;20031;-37
2022/12/21 06:54:19;;;;;;;16.87;12.50;;;;;;;7.35;100.00;101022.28;5115891;28;20024;-37
2022/12/21 06:56:44;;;;;;;18.27;13.30;;;;;;;7.26;100.00;101024.34;5116104;28;20475;-37
2022/12/21 06:59:09;;;;;;;18.17;13.27;;;;;;;7.24;100.00;101018.34;5116387;28;20352;-37
2022/12/21 07:01:35;;;;;;;15.80;12.60;;;;;;;7.32;100.00;101025.38;5115717;28;20464;-37
2022/12/21 07:04:01;;;;;;;18.65;12.15;;;;;;;7.29;100.00;101040.09;5116083;28;20415;-37
2022/12/21 07:06:29;;;;;;;16.33;11.85;;;;;;;7.28;100.00;101035.75;5115699;28;20032;-37
2022/12/21 07:08:55;;;;;;;15.25;11.98;;;;;;;7.30;100.00;101049.81;5115363;28;20031;-37
2022/12/21 07:11:21;;;;;;;;;;;;;;;7.35;100.00;101031.19;5116257;28;20037;-37
2022/12/21 07:13:48;;;;;;;18.02;11.27;;;;;;;7.19;100.00;101026.22;5116209;28;20325;-37
2022/12/21 07:16:14;;;;;;;14.98;10.85;;;;;;;7.17;100.00;101026.41;5115657;28;20024;-37
2022/12/21 07:18:40;;;;;;;;;;;;;;;7.23;100.00;101027.47;5116234;28;20398;-37
2022/12/21 07:21:10;;;;;;;11.02;8.65;;;;;;;7.05;100.00;101017.28;5115215;28;19911;-38
2022/12/21 07:23:36;;;;;;;14.50;9.60;;;;;;;7.03;100.00;101040.88;5115354;28;20515;-37
2022/12/21 07:26:11;;;;;;;13.75;8.68;;;;;;;7.03;100.00;101042.69;5115524;27;20053;-37
2022/12/21 07:28:37;;;;;;;10.63;8.73;;;;;;;6.95;100.00;101033.78;5115283;28;20031;-37
2022/12/21 07:31:04;;;;;;;15.80;9.02;;;;;;;7.00;100.00;101051.19;5115427;28;20024;-37
2022/12/21 07:33:30;;;;;;;11.73;8.70;;;;;;;7.00;100.00;101048.50;5115597;28;20468;-37
2022/12/21 07:35:59;;;;;;;;;;;;;;;7.06;100.00;101047.69;5115604;28;20564;-37
2022/12/21 07:38:29;;;;;;;11.70;7.05;;;;;;;7.04;100.00;101064.03;5115560;28;19916;-37
2022/12/21 07:41:02;;;;;;;10.50;6.95;;;;;;;7.01;100.00;101066.28;5115281;28;20019;-37
2022/12/21 07:43:28;;;;;;;10.77;7.00;;;;;;;7.01;100.00;101066.28;5115275;28;20023;-37
2022/12/21 07:45:53;;;;;;;9.07;6.50;;;;;;;6.95;100.00;101057.16;5115668;28;20356;-37
2022/12/21 07:48:19;;;;;;;11.80;6.57;;;;;;;6.96;100.00;101069.56;5114881;28;20035;-37
2022/12/21 07:50:47;;;;;;;11.48;7.25;;;;;;;7.02;100.00;101084.91;5115126;28;20027;-37
2022/12/21 07:53:12;;;;;;;8.27;6.97;;;;;;;7.01;100.00;101096.69;5114762;28;20028;-37
2022/12/21 07:55:38;;;;;;;9.63;6.40;;;;;;;7.04;100.00;101095.47;5114579;28;20127;-37
2022/12/21 07:58:03;;;;;;;9.73;6.73;;;;;;;7.03;100.00;101101.84;5115532;28;20053;-37
2022/12/21 08:00:28;;;;;;;12.70;7.27;;;;;;;7.02;100.00;101102.88;5115189;28;20122;-37
2022/12/21 08:02:54;;;;;;;9.43;6.27;;;;;;;7.03;100.00;101089.25;5114801;28;20055;-37
2022/12/21 08:05:19;;;;;;;10.83;7.13;;;;;;;7.03;100.00;101091.94;5114474;28;20055;-37
2022/12/21 08:07:46;;;;;;;10.35;6.53;;;;;;;7.02;100.00;101100.19;5115035;28;20032;-37
2022/12/21 08:10:11;;;;;;;11.38;6.47;;;;;;;6.95;100.00;101089.44;5114653;28;20367;-37
2022/12/21 08:12:37;;;;;;;11.15;6.40;;;;;;;6.95;100.00;101087.56;5114382;28;20114;-37
2022/12/21 08:15:02;;;;;;;10.00;6.60;;;;;;;6.89;100.00;101080.31;5113897;28;20396;-37
2022/12/21 08:17:28;;;;;;;12.45;6.80;;;;;;;6.80;100.00;101067.25;5114982;28;20027;-37
2022/12/21 08:19:53;;;;;;;10.47;6.97;;;;;;;6.91;100.00;101082.78;5113738;28;20121;-37
2022/12/21 08:22:18;;;;;;;16.97;7.93;;;;;;;6.87;100.00;101082.34;5114161;28;20035;-37
2022/12/21 08:24:44;;;;;;;14.90;7.23;;;;;;;6.84;100.00;101082.78;5114987;28;20051;-36
2022/12/21 08:27:10;;;;;;;12.53;7.80;;;;;;;6.90;100.00;101094.59;5114505;28;20031;-37
2022/12/21 08:29:36;;;;;;;;;;;;;;;7.00;100.00;101104.97;5114714;28;20051;-37
2022/12/21 08:32:02;;;;;;;12.25;7.00;;;;;;;6.91;100.00;101098.91;5114528;28;19947;-37
2022/12/21 08:34:27;;;;;;;14.02;6.85;;;;;;;6.96;100.00;101091.91;5113948;28;20059;-37
2022/12/21 08:36:53;;;;;;;15.67;8.03;;;;;;;7.01;100.00;101085.09;5113864;28;20069;-37
2022/12/21 08:39:18;;;;;;;12.57;7.43;;;;;;;6.95;100.00;101084.88;5114136;28;20055;-37
2022/12/21 08:41:43;;;;;;;11.70;8.37;;;;;;;7.02;100.00;101092.97;5114655;28;20031;-37
2022/12/21 08:44:09;;;;;;;13.27;8.20;;;;;;;7.03;100.00;101093.78;5114312;28;20023;-37
2022/12/21 08:46:34;;;;;;;13.53;7.67;;;;;;;7.05;100.00;101097.13;5114175;28;20024;-37
2022/12/21 08:49:00;;;;;;;15.50;8.63;;;;;;;7.02;100.00;101094.81;5114540;28;20027;-37
2022/12/21 08:51:25;;;;;;;13.30;7.82;;;;;;;6.99;100.00;101087.19;5114418;28;20039;-37
2022/12/21 08:53:53;;;;;;;13.33;9.13;;;;;;;7.04;100.00;101087.41;5114400;28;20371;-37
2022/12/21 08:56:19;;;;;;;15.57;8.07;;;;;;;7.14;100.00;101103.97;5114401;28;20027;-37
2022/12/21 08:58:44;;;;;;;13.55;8.00;;;;;;;7.15;100.00;101097.56;5114249;28;20119;-37
2022/12/21 09:01:10;;;;;;;12.60;8.53;;;;;;;7.15;100.00;101095.69;5113730;28;20027;-37
2022/12/21 09:03:35;;;;;;;12.93;8.73;;;;;;;7.05;100.00;101075.59;5113785;28;20040;-37
2022/12/21 09:06:04;;;;;;;15.53;8.50;;;;;;;7.12;100.00;101092.56;5113621;28;20032;-37
2022/12/21 09:08:29;;;;;;;12.77;8.40;;;;;;;7.20;100.00;101113.94;5113633;28;20047;-37
2022/12/21 09:10:59;;;;;;;16.23;8.95;;;;;;;7.21;100.00;101102.13;5113270;28;20500;-37
2022/12/21 09:13:25;;;;;;;15.07;9.27;;;;;;;7.16;100.00;101085.78;5113425;28;20483;-37
2022/12/21 09:15:50;;;;;;;18.20;9.67;;;;;;;7.22;100.00;101093.03;5111858;28;20030;-37
2022/12/21 09:18:15;;;;;;;16.40;10.00;;;;;;;7.16;100.00;101077.69;5113547;28;20053;-37
2022/12/21 09:20:41;;;;;;;14.93;10.50;;;;;;;7.13;100.00;101060.13;5113956;28;20031;-37
2022/12/21 09:23:06;;;;;;;18.73;10.87;;;;;;;7.27;100.00;101078.97;5114219;28;20105;-37
2022/12/21 09:25:32;;;;;;;18.63;10.47;;;;;;;7.28;100.00;101081.47;5113412;28;20028;-37
2022/12/21 09:28:01;;;;;;;18.63;11.85;;;;;;;7.34;100.00;101086.03;5113590;28;20019;-37
2022/12/21 09:30:27;;;;;;;20.00;11.52;;;;;;;7.42;100.00;101087.72;5113820;28;20290;-37
2022/12/21 09:32:52;;;;;;;;;;;;;;;7.49;100.00;101100.13;5114164;28;20039;-37
2022/12/21 09:35:17;;;;;;;19.93;12.03;;;;;;;7.48;100.00;101097.66;5113290;28;19912;-37
2022/12/21 09:37:43;;;;;;;19.53;12.23;;;;;;;7.51;100.00;101112.53;5113576;28;20301;-37
2022/12/21 09:40:12;;;;;;;22.60;14.03;;;;;;;7.55;100.00;101093.09;5113331;28;20019;-37
2022/12/21 09:43:12;;;;;;;21.77;14.88;;;;;;;7.62;100.00;101102.03;5113761;28;20111;-37
2022/12/21 09:45:52;;;;;;;19.77;14.15;;;;;;;7.67;100.00;101096.84;5113409;28;20483;-37
2022/12/21 09:48:24;;;;;;;18.55;14.38;;;;;;;7.66;100.00;101097.91;5113546;28;20106;-37
2022/12/21 09:51:05;;;;;;;18.65;13.95;;;;;;;7.70;100.00;101096.41;5113448;28;20084;-37
2022/12/21 09:53:44;;;;;;;21.80;14.38;;;;;;;7.72;100.00;101099.75;5113197;28;20028;-37
2022/12/21 09:56:16;;;;;;;21.00;13.90;;;;;;;7.74;100.00;101107.63;5113775;28;20027;-37
2022/12/21 09:58:45;;;;;;;23.02;13.98;;;;;;;7.67;100.00;101094.16;5112816;28;20467;-37
2022/12/21 10:01:42;;;;;;;23.88;14.82;;;;;;;7.79;100.00;101113.22;5112975;28;20035;-37
2022/12/21 10:04:10;;;;;;;19.33;12.95;;;;;;;7.81;100.00;101108.47;5114044;28;20028;-37
2022/12/21 10:06:55;;;;;;;20.40;13.52;;;;;;;7.83;100.00;101108.25;5113317;28;20027;-37
2022/12/21 10:09:38;;;;;;;20.65;13.77;;;;;;;7.77;100.00;101101.84;5113145;28;20028;-37
2022/12/21 10:12:16;;;;;;;20.90;13.10;;;;;;;7.85;100.00;101101.59;5112911;28;20098;-37
2022/12/21 10:15:26;;;;;;;19.65;12.68;;;;;;;7.90;100.00;101101.00;5113160;28;20024;-37
2022/12/21 10:18:07;;;;;;;22.38;13.40;;;;;;;7.89;100.00;101099.34;5030133;28;20121;-37
2022/12/21 10:20:32;;;;;;;20.85;12.98;;;;;;;7.92;100.00;101104.31;5029834;28;20036;-37
2022/12/21 10:23:02;;;;;;;22.40;12.33;;;;;;;7.91;100.00;101111.56;5030168;28;20112;-37
2022/12/21 10:25:44;;;;;;;20.83;12.38;;;;;;;7.91;100.00;101106.19;5030244;28;20030;-37
2022/12/21 10:28:42;;;;;;;21.60;12.38;;;;;;;7.84;100.00;101099.97;5029992;28;20107;-37
2022/12/21 10:31:21;;;;;;;20.08;11.77;;;;;;;7.87;100.00;101101.41;5030027;28;20030;-37
2022/12/21 10:33:50;;;;;;;19.77;11.27;;;;;;;7.83;100.00;101111.78;5029964;28;20038;-37
2022/12/21 10:36:22;;;;;;;24.35;13.85;;;;;;;7.82;100.00;101096.66;5030452;28;20378;-37
2022/12/21 10:38:47;;;;;;;18.58;12.32;;;;;;;7.81;100.00;101105.78;5029955;28;20160;-37
2022/12/21 10:41:20;;;;;;;20.05;10.98;;;;;;;7.80;100.00;101101.41;5029940;28;20528;-37
2022/12/21 10:43:48;;;;;;;17.45;11.60;;;;;;;7.86;100.00;101095.22;5031356;28;20477;-37
2022/12/21 10:46:17;;;;;;;18.10;11.18;;;;;;;7.85;100.00;101093.53;5033334;28;20033;-37
2022/12/21 10:48:46;;;;;;;20.35;11.73;;;;;;;7.88;100.00;101082.34;5033585;28;20045;-37
2022/12/21 10:51:32;;;;;;;17.55;11.02;;;;;;;7.89;100.00;101075.94;5033293;28;20042;-37
2022/12/21 10:54:06;;;;;;;13.40;9.77;;;;;;;7.89;100.00;101078.63;5074085;28;20055;-37
2022/12/21 10:56:36;;;;;;;20.23;10.63;;;;;;;7.90;100.00;101074.88;5116639;28;20023;-37
2022/12/21 10:59:20;;;;;;;16.15;11.13;;;;;;;7.90;100.00;101074.88;5116218;28;20051;-37
2022/12/21 11:01:45;;;;;;;18.33;11.05;;;;;;;7.73;100.00;101044.06;5116006;28;20034;-37
2022/12/21 11:04:27;;;;;;;17.35;10.90;;;;;;;7.87;100.00;101055.66;5116099;28;20027;-37
2022/12/21 11:07:24;;;;;;;16.23;10.40;;;;;;;7.83;100.00;101046.31;5116511;28;20532;-37
2022/12/21 11:09:58;;;;;;;18.55;10.55;;;;;;;7.94;100.00;101069.94;5073529;28;20117;-37
2022/12/21 11:12:25;;;;;;;17.85;11.27;;;;;;;7.79;100.00;101040.53;5072690;28;20063;-37
2022/12/21 11:14:53;;;;;;;16.27;9.50;;;;;;;7.92;100.00;101067.44;5073185;28;20043;-37
2022/12/21 11:17:22;;;;;;;20.17;10.63;;;;;;;7.88;100.00;101066.19;5072714;28;20037;-37
2022/12/21 11:19:51;;;;;;;17.77;10.10;;;;;;;7.87;100.00;101058.34;5073517;28;20024;-37
2022/12/21 11:22:25;;;;;;;17.88;10.45;;;;;;;7.81;100.00;101051.94;5072604;28;20366;-37
2022/12/21 11:24:53;;;;;;;18.20;11.10;;;;;;;7.86;100.00;101068.28;5072950;28;20040;-37
2022/12/21 11:27:27;;;;;;;17.52;11.38;;;;;;;7.80;100.00;101061.00;5072712;28;20036;-37
2022/12/21 11:29:55;;;;;;;17.58;11.20;;;;;;;7.87;100.00;101075.31;5072651;28;20036;-38
2022/12/21 11:32:22;;;;;;;20.38;10.77;;;;;;;7.90;100.00;101068.69;5072493;28;20465;-37